createdAt,value
2023-03-29T00:00:50.198Z,100.00
2023-03-29T00:03:17.377Z,100.00
2023-03-29T00:05:44.803Z,100.00
2023-03-29T00:08:14.411Z,100.00
2023-03-29T00:10:42.105Z,100.00
2023-03-29T00:13:08.649Z,100.00
2023-03-29T00:15:35.495Z,100.00
2023-03-29T00:18:02.112Z,100.00
2023-03-29T00:20:28.951Z,100.00
2023-03-29T00:22:55.745Z,100.00
2023-03-29T00:25:22.529Z,100.00
2023-03-29T00:27:49.194Z,100.00
2023-03-29T00:30:16.470Z,100.00
2023-03-29T00:32:43.176Z,100.00
2023-03-29T00:35:11.013Z,100.00
2023-03-29T00:37:38.076Z,100.00
2023-03-29T00:40:10.819Z,100.00
2023-03-29T00:42:37.600Z,100.00
2023-03-29T00:45:10.051Z,100.00
2023-03-29T00:47:46.486Z,100.00
2023-03-29T00:50:29.704Z,100.00
2023-03-29T00:53:09.411Z,100.00
2023-03-29T00:55:43.057Z,100.00
2023-03-29T00:58:13.978Z,100.00
2023-03-29T01:00:45.643Z,100.00
2023-03-29T01:03:25.027Z,100.00
2023-03-29T01:05:57.739Z,100.00
2023-03-29T01:08:29.604Z,100.00
2023-03-29T01:11:15.763Z,100.00
2023-03-29T01:13:50.534Z,100.00
2023-03-29T01:16:20.174Z,100.00
2023-03-29T01:18:49.592Z,100.00
2023-03-29T01:21:21.316Z,100.00
2023-03-29T01:24:09.362Z,100.00
2023-03-29T01:26:52.711Z,100.00
2023-03-29T01:29:31.430Z,100.00
2023-03-29T01:32:03.600Z,100.00
2023-03-29T01:34:51.758Z,100.00
2023-03-29T01:37:27.230Z,100.00
2023-03-29T01:39:53.957Z,100.00
2023-03-29T01:42:30.961Z,100.00
2023-03-29T01:45:04.885Z,100.00
2023-03-29T01:47:39.409Z,99.78
2023-03-29T01:50:08.838Z,99.68
2023-03-29T01:52:57.907Z,99.58
2023-03-29T01:55:31.733Z,99.48
2023-03-29T01:58:00.715Z,99.44
2023-03-29T02:00:29.519Z,99.10
2023-03-29T02:03:03.314Z,99.44
2023-03-29T02:05:31.644Z,98.93
2023-03-29T02:08:00.550Z,99.16
2023-03-29T02:10:27.962Z,99.01
2023-03-29T02:12:54.733Z,99.13
2023-03-29T02:15:23.315Z,99.17
2023-03-29T02:17:51.008Z,99.56
2023-03-29T02:20:29.185Z,99.80
2023-03-29T02:23:05.170Z,99.56
2023-03-29T02:25:32.611Z,99.91
2023-03-29T02:27:59.936Z,99.85
2023-03-29T02:30:33.656Z,99.93
2023-03-29T02:33:15.659Z,99.68
2023-03-29T02:35:56.742Z,100.00
2023-03-29T02:38:25.623Z,99.96
2023-03-29T02:40:52.931Z,100.00
2023-03-29T02:43:20.104Z,100.00
2023-03-29T02:45:47.708Z,100.00
2023-03-29T02:48:18.260Z,100.00
2023-03-29T02:50:47.696Z,100.00
2023-03-29T02:53:23.021Z,100.00
2023-03-29T02:55:49.729Z,100.00
2023-03-29T02:58:16.245Z,100.00
2023-03-29T03:00:48.195Z,100.00
2023-03-29T03:03:18.073Z,100.00
2023-03-29T03:05:44.747Z,100.00
2023-03-29T03:08:11.456Z,100.00
2023-03-29T03:10:38.310Z,100.00
2023-03-29T03:13:04.715Z,100.00
2023-03-29T03:15:35.478Z,100.00
2023-03-29T03:18:06.158Z,100.00
2023-03-29T03:20:33.318Z,100.00
2023-03-29T03:23:01.099Z,100.00
2023-03-29T03:25:28.735Z,100.00
2023-03-29T03:27:55.390Z,100.00
2023-03-29T03:30:22.018Z,100.00
2023-03-29T03:32:49.827Z,100.00
2023-03-29T03:35:16.591Z,100.00
2023-03-29T03:37:43.104Z,100.00
2023-03-29T03:40:11.817Z,100.00
2023-03-29T03:42:39.834Z,100.00
2023-03-29T03:45:08.380Z,100.00
2023-03-29T03:47:37.534Z,100.00
2023-03-29T03:50:06.115Z,100.00
2023-03-29T03:52:32.627Z,100.00
2023-03-29T03:54:59.385Z,100.00
2023-03-29T03:57:26.005Z,100.00
2023-03-29T03:59:52.924Z,100.00
2023-03-29T04:02:20.592Z,100.00
2023-03-29T04:04:47.635Z,100.00
2023-03-29T04:07:14.427Z,100.00
2023-03-29T04:09:40.942Z,100.00
2023-03-29T04:12:07.622Z,100.00
2023-03-29T04:14:34.293Z,100.00
2023-03-29T04:17:01.401Z,100.00
2023-03-29T04:19:28.137Z,100.00
2023-03-29T04:21:54.636Z,100.00
2023-03-29T04:24:21.107Z,100.00
2023-03-29T04:26:48.431Z,100.00
2023-03-29T04:29:14.967Z,100.00
2023-03-29T04:31:41.877Z,100.00
2023-03-29T04:34:08.437Z,100.00
2023-03-29T04:36:35.025Z,100.00
2023-03-29T04:39:01.788Z,100.00
2023-03-29T04:41:28.941Z,100.00
2023-03-29T04:43:56.240Z,100.00
2023-03-29T04:46:26.664Z,100.00
2023-03-29T04:48:54.032Z,100.00
2023-03-29T04:51:22.226Z,100.00
2023-03-29T04:53:50.285Z,100.00
2023-03-29T04:56:17.657Z,100.00
2023-03-29T04:58:44.624Z,100.00
2023-03-29T05:01:11.406Z,100.00
2023-03-29T05:03:37.903Z,100.00
2023-03-29T05:06:07.083Z,100.00
2023-03-29T05:08:35.044Z,100.00
2023-03-29T05:11:01.942Z,100.00
2023-03-29T05:13:28.693Z,100.00
2023-03-29T05:15:57.236Z,100.00
2023-03-29T05:18:23.753Z,100.00
2023-03-29T05:20:53.045Z,100.00
2023-03-29T05:23:20.687Z,100.00
2023-03-29T05:25:51.046Z,100.00
2023-03-29T05:28:18.323Z,100.00
2023-03-29T05:30:45.456Z,100.00
2023-03-29T05:33:12.034Z,100.00
2023-03-29T05:35:38.719Z,100.00
2023-03-29T05:38:05.481Z,100.00
2023-03-29T05:40:32.638Z,100.00
2023-03-29T05:43:01.426Z,100.00
2023-03-29T05:45:29.582Z,100.00
2023-03-29T05:47:57.492Z,100.00
2023-03-29T05:50:24.769Z,100.00
2023-03-29T05:52:51.578Z,100.00
2023-03-29T05:55:18.492Z,100.00
2023-03-29T05:57:44.971Z,100.00
2023-03-29T06:00:23.906Z,100.00
2023-03-29T06:02:52.668Z,100.00
2023-03-29T06:05:20.160Z,100.00
2023-03-29T06:07:48.786Z,100.00
2023-03-29T06:10:16.074Z,100.00
2023-03-29T06:12:42.492Z,100.00
2023-03-29T06:15:10.245Z,100.00
2023-03-29T06:17:37.064Z,100.00
2023-03-29T06:20:09.095Z,100.00
2023-03-29T06:22:35.867Z,100.00
2023-03-29T06:25:02.574Z,100.00
2023-03-29T06:27:29.010Z,100.00
2023-03-29T06:29:55.418Z,100.00
2023-03-29T06:32:22.191Z,100.00
2023-03-29T06:34:48.783Z,100.00
2023-03-29T06:37:15.312Z,100.00
2023-03-29T06:39:41.792Z,100.00
2023-03-29T06:42:19.986Z,100.00
2023-03-29T06:44:47.931Z,100.00
2023-03-29T06:47:14.892Z,100.00
2023-03-29T06:49:42.286Z,100.00
2023-03-29T06:52:09.029Z,100.00
2023-03-29T06:54:35.631Z,100.00
2023-03-29T06:57:03.871Z,100.00
2023-03-29T06:59:30.335Z,100.00
2023-03-29T07:01:56.990Z,100.00
2023-03-29T07:04:24.768Z,100.00
2023-03-29T07:07:01.320Z,100.00
2023-03-29T07:09:30.047Z,100.00
2023-03-29T07:11:58.162Z,100.00
2023-03-29T07:14:28.663Z,100.00
2023-03-29T07:16:56.203Z,100.00
2023-03-29T07:19:24.285Z,100.00
2023-03-29T07:21:53.027Z,100.00
2023-03-29T07:24:20.194Z,100.00
2023-03-29T07:27:03.245Z,100.00
2023-03-29T07:29:31.424Z,100.00
2023-03-29T07:31:57.938Z,100.00
2023-03-29T07:34:24.467Z,100.00
2023-03-29T07:36:51.532Z,100.00
2023-03-29T07:39:18.325Z,100.00
2023-03-29T07:41:44.809Z,100.00
2023-03-29T07:44:11.352Z,100.00
2023-03-29T07:46:37.997Z,100.00
2023-03-29T07:49:04.566Z,100.00
2023-03-29T07:51:31.258Z,100.00
2023-03-29T07:53:57.715Z,100.00
2023-03-29T07:56:24.759Z,100.00
2023-03-29T07:58:51.775Z,100.00
2023-03-29T08:01:19.920Z,100.00
2023-03-29T08:03:46.751Z,100.00
2023-03-29T08:06:13.392Z,100.00
2023-03-29T08:08:40.268Z,100.00
2023-03-29T08:11:09.790Z,100.00
2023-03-29T08:13:36.486Z,100.00
2023-03-29T08:16:03.395Z,99.83
2023-03-29T08:18:31.124Z,99.87
2023-03-29T08:20:58.732Z,99.87
2023-03-29T08:23:25.264Z,99.66
2023-03-29T08:25:52.191Z,100.00
2023-03-29T08:28:18.648Z,99.61
2023-03-29T08:30:45.636Z,99.66
2023-03-29T08:33:12.246Z,99.58
2023-03-29T08:35:39.019Z,99.17
2023-03-29T08:38:05.565Z,99.74
2023-03-29T08:40:33.653Z,99.88
2023-03-29T08:43:18.690Z,99.42
2023-03-29T08:46:12.196Z,99.25
2023-03-29T08:48:44.423Z,99.48
2023-03-29T08:51:21.551Z,99.44
2023-03-29T08:53:56.805Z,99.34
2023-03-29T08:56:27.110Z,99.33
2023-03-29T08:58:56.718Z,99.51
2023-03-29T09:01:25.271Z,99.32
2023-03-29T09:04:03.813Z,99.09
2023-03-29T09:06:30.958Z,99.20
2023-03-29T09:08:57.938Z,99.26
2023-03-29T09:11:24.296Z,99.32
2023-03-29T09:14:22.576Z,99.80
2023-03-29T09:17:04.084Z,99.76
2023-03-29T09:20:18.221Z,99.71
2023-03-29T09:22:59.962Z,99.30
2023-03-29T09:25:50.860Z,99.77
2023-03-29T09:28:28.281Z,100.00
2023-03-29T09:31:28.462Z,99.74
2023-03-29T09:33:59.045Z,99.50
2023-03-29T09:36:44.407Z,99.46
2023-03-29T09:39:14.609Z,99.47
2023-03-29T09:41:48.106Z,99.00
2023-03-29T09:44:30.257Z,98.95
2023-03-29T09:47:07.789Z,98.87
2023-03-29T09:49:42.160Z,99.39
2023-03-29T09:52:13.149Z,99.15
2023-03-29T09:54:40.204Z,98.75
2023-03-29T09:57:09.366Z,98.56
2023-03-29T09:59:35.973Z,98.46
2023-03-29T10:02:13.623Z,99.10
2023-03-29T10:04:42.471Z,99.14
2023-03-29T10:07:16.053Z,98.79
2023-03-29T10:09:45.541Z,99.11
2023-03-29T10:12:13.634Z,98.93
2023-03-29T10:14:51.523Z,99.03
2023-03-29T10:17:22.334Z,98.73
2023-03-29T10:19:57.062Z,98.43
2023-03-29T10:22:32.935Z,98.40
2023-03-29T10:24:59.440Z,97.57
2023-03-29T10:27:28.178Z,96.87
2023-03-29T10:29:56.516Z,97.03
2023-03-29T10:32:23.162Z,96.42
2023-03-29T10:34:51.953Z,96.97
2023-03-29T10:37:21.111Z,96.70
2023-03-29T10:39:48.853Z,97.10
2023-03-29T10:42:18.145Z,97.22
2023-03-29T10:44:54.177Z,97.89
2023-03-29T10:47:21.584Z,98.65
2023-03-29T10:49:56.453Z,99.02
2023-03-29T10:52:23.626Z,99.34
2023-03-29T10:54:52.530Z,99.93
2023-03-29T10:58:02.110Z,100.00
2023-03-29T11:00:45.268Z,100.00
2023-03-29T11:03:30.509Z,100.00
2023-03-29T11:06:27.426Z,100.00
2023-03-29T11:08:59.304Z,100.00
2023-03-29T11:11:44.233Z,100.00
2023-03-29T11:14:29.356Z,100.00
2023-03-29T11:16:58.368Z,100.00
2023-03-29T11:19:43.007Z,100.00
2023-03-29T11:22:27.936Z,100.00
2023-03-29T11:25:23.453Z,100.00
2023-03-29T11:28:18.141Z,100.00
2023-03-29T11:31:28.790Z,100.00
2023-03-29T11:34:21.230Z,100.00
2023-03-29T11:36:59.376Z,100.00
2023-03-29T11:39:38.647Z,100.00
2023-03-29T11:42:16.591Z,100.00
2023-03-29T11:44:44.789Z,100.00
2023-03-29T11:47:18.723Z,100.00
2023-03-29T11:49:56.237Z,100.00
2023-03-29T11:52:40.946Z,100.00
2023-03-29T11:55:23.529Z,100.00
2023-03-29T11:57:57.965Z,100.00
2023-03-29T12:00:32.062Z,100.00
2023-03-29T12:03:21.339Z,99.94
2023-03-29T12:06:04.885Z,99.09
2023-03-29T12:09:02.247Z,99.54
2023-03-29T12:11:36.269Z,99.80
2023-03-29T12:14:11.638Z,100.00
2023-03-29T12:16:44.692Z,99.93
2023-03-29T12:19:31.670Z,100.00
2023-03-29T12:22:00.523Z,100.00
2023-03-29T12:24:31.897Z,100.00
2023-03-29T12:27:20.814Z,99.80
2023-03-29T12:30:35.080Z,100.00
2023-03-29T12:33:20.000Z,100.00
2023-03-29T12:36:10.884Z,100.00
2023-03-29T12:38:37.940Z,100.00
2023-03-29T12:41:19.022Z,100.00
2023-03-29T12:43:46.555Z,100.00
2023-03-29T12:46:18.567Z,100.00
2023-03-29T12:48:49.106Z,100.00
2023-03-29T12:51:18.732Z,100.00
2023-03-29T12:53:49.072Z,100.00
2023-03-29T12:56:19.351Z,100.00
2023-03-29T12:59:06.917Z,100.00
2023-03-29T13:01:38.632Z,100.00
2023-03-29T13:04:22.428Z,100.00
2023-03-29T13:06:48.853Z,100.00
2023-03-29T13:09:23.261Z,100.00
2023-03-29T13:11:55.493Z,100.00
2023-03-29T13:14:26.321Z,100.00
2023-03-29T13:16:53.646Z,100.00
2023-03-29T13:19:24.975Z,100.00
2023-03-29T13:22:17.743Z,100.00
2023-03-29T13:24:47.227Z,100.00
2023-03-29T13:27:25.248Z,100.00
2023-03-29T13:30:16.756Z,100.00
2023-03-29T13:32:48.561Z,100.00
2023-03-29T13:35:50.480Z,100.00
2023-03-29T13:38:27.668Z,100.00
2023-03-29T13:40:54.061Z,100.00
2023-03-29T13:43:30.819Z,100.00
2023-03-29T13:45:57.229Z,100.00
2023-03-29T13:48:29.365Z,99.98
2023-03-29T13:50:57.683Z,99.65
2023-03-29T13:54:03.435Z,100.00
2023-03-29T13:56:39.405Z,99.73
2023-03-29T13:59:11.964Z,99.60
2023-03-29T14:02:06.548Z,99.10
2023-03-29T14:04:41.944Z,99.33
2023-03-29T14:07:10.603Z,99.02
2023-03-29T14:09:44.009Z,98.63
2023-03-29T14:12:15.151Z,98.31
2023-03-29T14:14:55.995Z,97.97
2023-03-29T14:17:25.707Z,97.91
2023-03-29T14:19:58.131Z,97.95
2023-03-29T14:22:29.205Z,98.24
2023-03-29T14:24:56.821Z,98.05
2023-03-29T14:27:23.414Z,98.17
2023-03-29T14:29:51.349Z,97.96
2023-03-29T14:32:27.479Z,97.94
2023-03-29T14:34:54.122Z,97.87
2023-03-29T14:37:25.272Z,97.66
2023-03-29T14:39:52.285Z,97.01
2023-03-29T14:42:24.205Z,97.65
2023-03-29T14:44:51.117Z,97.28
2023-03-29T14:47:29.378Z,96.90
2023-03-29T14:50:00.632Z,96.19
2023-03-29T14:52:29.230Z,95.49
2023-03-29T14:54:58.317Z,95.35
2023-03-29T14:57:28.794Z,95.66
2023-03-29T15:00:00.327Z,94.92
2023-03-29T15:02:32.709Z,95.04
2023-03-29T15:05:07.564Z,94.29
2023-03-29T15:07:37.037Z,93.49
2023-03-29T15:10:06.279Z,93.39
2023-03-29T15:12:33.843Z,92.93
2023-03-29T15:15:01.460Z,93.05
2023-03-29T15:17:51.108Z,93.19
2023-03-29T15:20:28.437Z,92.99
2023-03-29T15:23:13.215Z,93.18
2023-03-29T15:25:58.406Z,93.25
2023-03-29T15:28:26.601Z,92.94
2023-03-29T15:31:07.333Z,92.30
2023-03-29T15:33:37.677Z,91.49
2023-03-29T15:36:07.860Z,91.12
2023-03-29T15:38:43.847Z,91.68
2023-03-29T15:41:12.461Z,91.76
2023-03-29T15:43:39.162Z,91.47
2023-03-29T15:46:05.926Z,91.57
2023-03-29T15:48:33.765Z,91.27
2023-03-29T15:51:13.557Z,91.84
2023-03-29T15:53:40.525Z,91.99
2023-03-29T15:56:11.566Z,91.71
2023-03-29T15:58:38.332Z,91.91
2023-03-29T16:01:19.305Z,91.83
2023-03-29T16:03:47.851Z,92.47
2023-03-29T16:06:17.321Z,92.43
2023-03-29T16:08:43.802Z,92.73
2023-03-29T16:11:10.305Z,92.59
2023-03-29T16:13:36.740Z,92.64
2023-03-29T16:16:03.638Z,93.19
2023-03-29T16:18:30.391Z,93.30
2023-03-29T16:20:57.004Z,93.54
2023-03-29T16:23:23.461Z,93.65
2023-03-29T16:25:50.292Z,93.65
2023-03-29T16:28:16.969Z,93.88
2023-03-29T16:30:43.757Z,94.30
2023-03-29T16:33:10.915Z,94.54
2023-03-29T16:35:39.998Z,94.50
2023-03-29T16:38:07.765Z,94.54
2023-03-29T16:40:34.718Z,94.87
2023-03-29T16:43:01.716Z,95.10
2023-03-29T16:45:28.605Z,95.52
2023-03-29T16:47:56.037Z,95.69
2023-03-29T16:50:23.134Z,96.06
2023-03-29T16:52:51.439Z,96.34
2023-03-29T16:55:19.016Z,96.62
2023-03-29T16:57:46.902Z,97.14
2023-03-29T17:00:15.954Z,97.17
2023-03-29T17:02:46.186Z,97.80
2023-03-29T17:05:13.041Z,97.86
2023-03-29T17:07:39.522Z,98.44
2023-03-29T17:10:10.679Z,98.45
2023-03-29T17:12:37.215Z,98.79
2023-03-29T17:15:05.366Z,98.79
2023-03-29T17:17:32.054Z,98.84
2023-03-29T17:19:58.522Z,99.36
2023-03-29T17:22:25.824Z,99.39
2023-03-29T17:24:52.494Z,99.76
2023-03-29T17:27:18.944Z,99.90
2023-03-29T17:29:45.465Z,99.95
2023-03-29T17:32:11.929Z,99.99
2023-03-29T17:34:38.947Z,100.00
2023-03-29T17:37:05.405Z,100.00
2023-03-29T17:39:32.089Z,100.00
2023-03-29T17:41:58.578Z,100.00
2023-03-29T17:44:25.064Z,100.00
2023-03-29T17:46:51.642Z,100.00
2023-03-29T17:49:18.108Z,100.00
2023-03-29T17:51:46.204Z,100.00
2023-03-29T17:54:12.694Z,100.00
2023-03-29T17:56:39.257Z,100.00
2023-03-29T17:59:05.891Z,100.00
2023-03-29T18:01:32.791Z,100.00
2023-03-29T18:03:59.375Z,100.00
2023-03-29T18:06:25.994Z,100.00
2023-03-29T18:08:53.306Z,100.00
2023-03-29T18:11:25.543Z,100.00
2023-03-29T18:13:53.208Z,100.00
2023-03-29T18:16:21.332Z,100.00
2023-03-29T18:18:48.534Z,100.00
2023-03-29T18:21:16.954Z,100.00
2023-03-29T18:23:48.082Z,100.00
2023-03-29T18:26:16.560Z,100.00
2023-03-29T18:28:48.282Z,100.00
2023-03-29T18:31:15.624Z,100.00
2023-03-29T18:33:42.272Z,100.00
2023-03-29T18:36:12.614Z,100.00
2023-03-29T18:38:40.808Z,100.00
2023-03-29T18:41:08.613Z,100.00
2023-03-29T18:43:35.968Z,100.00
2023-03-29T18:46:03.433Z,100.00
2023-03-29T18:48:30.183Z,100.00
2023-03-29T18:50:57.864Z,100.00
2023-03-29T18:53:24.465Z,100.00
2023-03-29T18:55:51.090Z,100.00
2023-03-29T18:58:17.848Z,100.00
2023-03-29T19:00:44.698Z,100.00
2023-03-29T19:03:11.375Z,100.00
2023-03-29T19:05:39.686Z,100.00
2023-03-29T19:08:08.926Z,100.00
2023-03-29T19:10:39.267Z,100.00
2023-03-29T19:13:06.039Z,100.00
2023-03-29T19:15:34.669Z,100.00
2023-03-29T19:18:01.478Z,100.00
2023-03-29T19:20:29.342Z,100.00
2023-03-29T19:22:55.858Z,100.00
2023-03-29T19:25:22.471Z,100.00
2023-03-29T19:27:50.261Z,100.00
2023-03-29T19:30:18.155Z,100.00
2023-03-29T19:32:44.619Z,100.00
2023-03-29T19:35:12.808Z,100.00
2023-03-29T19:37:39.604Z,100.00
2023-03-29T19:40:08.250Z,100.00
2023-03-29T19:42:37.658Z,100.00
2023-03-29T19:45:06.366Z,100.00
2023-03-29T19:47:32.899Z,100.00
2023-03-29T19:49:59.921Z,100.00
2023-03-29T19:52:28.207Z,100.00
2023-03-29T19:54:55.947Z,100.00
2023-03-29T19:57:23.877Z,100.00
2023-03-29T19:59:50.888Z,100.00
2023-03-29T20:02:17.507Z,100.00
2023-03-29T20:04:44.184Z,100.00
2023-03-29T20:07:10.825Z,100.00
2023-03-29T20:09:37.741Z,100.00
2023-03-29T20:12:04.918Z,100.00
2023-03-29T20:14:31.626Z,100.00
2023-03-29T20:16:58.475Z,100.00
2023-03-29T20:19:25.359Z,100.00
2023-03-29T20:21:57.378Z,100.00
2023-03-29T20:24:24.825Z,100.00
2023-03-29T20:26:51.793Z,100.00
2023-03-29T20:29:18.985Z,100.00
2023-03-29T20:31:46.325Z,100.00
2023-03-29T20:34:12.907Z,100.00
2023-03-29T20:36:40.477Z,100.00
2023-03-29T20:39:08.248Z,100.00
2023-03-29T20:41:38.405Z,100.00
2023-03-29T20:44:05.637Z,100.00
2023-03-29T20:46:35.744Z,100.00
2023-03-29T20:49:08.898Z,100.00
2023-03-29T20:51:36.326Z,100.00
2023-03-29T20:54:06.129Z,100.00
2023-03-29T20:56:38.987Z,100.00
2023-03-29T20:59:10.605Z,100.00
2023-03-29T21:01:40.553Z,100.00
2023-03-29T21:04:10.959Z,100.00
2023-03-29T21:06:39.414Z,100.00
2023-03-29T21:09:06.157Z,100.00
2023-03-29T21:11:32.684Z,100.00
2023-03-29T21:13:59.151Z,100.00
2023-03-29T21:16:25.860Z,100.00
2023-03-29T21:18:53.227Z,100.00
2023-03-29T21:21:19.682Z,100.00
2023-03-29T21:23:46.130Z,100.00
2023-03-29T21:26:13.212Z,100.00
2023-03-29T21:28:41.062Z,100.00
2023-03-29T21:31:08.243Z,100.00
2023-03-29T21:33:35.881Z,100.00
2023-03-29T21:36:02.575Z,100.00
2023-03-29T21:38:29.136Z,100.00
2023-03-29T21:40:55.869Z,100.00
2023-03-29T21:43:22.460Z,100.00
2023-03-29T21:45:49.865Z,100.00
2023-03-29T21:48:17.391Z,100.00
2023-03-29T21:50:44.375Z,100.00
2023-03-29T21:53:11.025Z,100.00
2023-03-29T21:55:37.560Z,100.00
2023-03-29T21:58:04.614Z,100.00
2023-03-29T22:00:31.800Z,100.00
2023-03-29T22:02:58.493Z,100.00
2023-03-29T22:05:26.198Z,100.00
2023-03-29T22:07:52.846Z,100.00
2023-03-29T22:10:23.161Z,100.00
2023-03-29T22:12:51.239Z,100.00
2023-03-29T22:15:20.564Z,100.00
2023-03-29T22:17:47.170Z,100.00
2023-03-29T22:20:14.274Z,100.00
2023-03-29T22:22:45.897Z,100.00
2023-03-29T22:25:13.065Z,100.00
2023-03-29T22:27:39.546Z,100.00
2023-03-29T22:30:06.779Z,100.00
2023-03-29T22:32:33.409Z,100.00
2023-03-29T22:35:00.113Z,100.00
2023-03-29T22:37:26.692Z,100.00
2023-03-29T22:39:53.247Z,100.00
2023-03-29T22:42:20.174Z,100.00
2023-03-29T22:44:46.761Z,100.00
2023-03-29T22:47:13.203Z,100.00
2023-03-29T22:49:39.776Z,100.00
2023-03-29T22:52:06.625Z,100.00
2023-03-29T22:54:33.292Z,100.00
2023-03-29T22:56:59.877Z,100.00
2023-03-29T22:59:27.282Z,100.00
2023-03-29T23:01:54.008Z,100.00
2023-03-29T23:04:20.590Z,100.00
2023-03-29T23:06:47.033Z,100.00
2023-03-29T23:09:15.989Z,100.00
2023-03-29T23:11:42.952Z,100.00
2023-03-29T23:14:09.565Z,100.00
2023-03-29T23:16:36.893Z,100.00
2023-03-29T23:19:03.419Z,100.00
2023-03-29T23:21:29.968Z,100.00
2023-03-29T23:23:56.414Z,100.00
2023-03-29T23:26:23.172Z,100.00
2023-03-29T23:28:51.431Z,100.00
2023-03-29T23:31:18.456Z,100.00
2023-03-29T23:33:45.145Z,100.00
2023-03-29T23:36:14.453Z,100.00
2023-03-29T23:38:42.377Z,100.00
2023-03-29T23:41:10.819Z,100.00
2023-03-29T23:43:40.587Z,100.00
2023-03-29T23:46:16.241Z,100.00
2023-03-29T23:48:47.265Z,100.00
2023-03-29T23:51:13.893Z,100.00
2023-03-29T23:53:40.452Z,100.00
2023-03-29T23:56:08.052Z,100.00
2023-03-29T23:58:37.341Z,100.00
